createdAt,value
2022-12-11T18:33:11.692Z,434
2022-12-11T18:34:11.496Z,526
2022-12-11T18:35:11.684Z,603
2022-12-11T18:36:11.365Z,487
2022-12-11T18:37:11.535Z,641
2022-12-11T18:38:11.674Z,683
2022-12-11T18:39:11.396Z,575
2022-12-11T18:40:11.482Z,735
2022-12-11T18:41:11.469Z,708
2022-12-11T18:42:32.091Z,710
2022-12-11T18:43:11.668Z,575
2022-12-11T18:44:11.472Z,763
2022-12-11T18:45:11.683Z,740
2022-12-11T18:46:11.501Z,817
2022-12-11T18:47:11.481Z,575
2022-12-11T18:48:11.669Z,599
2022-12-11T18:49:11.498Z,770
2022-12-11T18:50:11.490Z,800
2022-12-11T18:51:11.500Z,785
2022-12-11T18:52:11.459Z,785
2022-12-11T18:53:11.655Z,596
2022-12-11T18:54:11.496Z,577
2022-12-11T18:55:11.654Z,744
2022-12-11T18:56:11.495Z,791
2022-12-11T18:57:11.502Z,542
2022-12-11T18:58:11.675Z,715
2022-12-11T18:59:11.465Z,599
2022-12-11T19:00:11.483Z,759
2022-12-11T19:01:11.539Z,746
2022-12-11T19:02:11.509Z,603
2022-12-11T19:03:11.653Z,584
2022-12-11T19:04:11.506Z,543
2022-12-11T19:05:11.657Z,704
2022-12-11T19:06:11.482Z,531
2022-12-11T19:07:11.494Z,410
2022-12-11T19:08:11.697Z,645
2022-12-11T19:09:11.498Z,472
2022-12-11T19:10:11.472Z,492
2022-12-11T19:11:11.470Z,500
2022-12-11T19:12:11.481Z,617
2022-12-11T19:13:11.678Z,682
2022-12-11T19:14:11.501Z,515
2022-12-11T19:15:11.779Z,531
2022-12-11T19:16:11.581Z,650
2022-12-11T19:17:11.525Z,482
2022-12-11T19:18:11.709Z,597
2022-12-11T19:19:11.495Z,737
2022-12-11T19:20:40.132Z,545
2022-12-11T19:21:12.540Z,694
2022-12-11T19:22:11.508Z,671
2022-12-11T19:23:11.685Z,686
2022-12-11T19:24:11.517Z,500
2022-12-11T19:25:11.764Z,493
2022-12-11T19:26:11.501Z,495
2022-12-11T19:27:13.603Z,643
2022-12-11T19:28:11.696Z,641
2022-12-11T19:29:11.495Z,483
2022-12-11T19:30:11.478Z,633
2022-12-11T19:31:11.500Z,653
2022-12-11T19:32:11.492Z,439
2022-12-11T19:33:11.690Z,637
2022-12-11T19:34:11.497Z,656
2022-12-11T19:35:11.688Z,517
2022-12-11T19:36:11.525Z,580
2022-12-11T19:37:11.534Z,443
2022-12-11T19:38:11.664Z,584
2022-12-11T19:39:13.168Z,444
2022-12-11T19:40:11.502Z,424
2022-12-11T19:41:11.506Z,433
2022-12-11T19:42:11.515Z,611
2022-12-11T19:43:11.689Z,594
2022-12-11T19:44:11.519Z,523
2022-12-11T19:45:11.683Z,682
2022-12-11T19:46:11.502Z,533
2022-12-11T19:47:11.543Z,657
2022-12-11T19:48:11.657Z,483
2022-12-11T19:49:11.490Z,586
2022-12-11T19:50:11.482Z,459
2022-12-11T19:51:11.491Z,584
2022-12-11T19:52:11.477Z,592
2022-12-11T19:53:11.659Z,588
2022-12-11T19:54:11.486Z,443
2022-12-11T19:55:11.747Z,434
2022-12-11T19:56:11.495Z,588
2022-12-11T19:57:11.484Z,462
2022-12-11T19:58:11.697Z,611
2022-12-11T19:59:11.520Z,517
2022-12-11T20:00:11.493Z,653
2022-12-11T20:01:11.556Z,683
2022-12-11T20:02:11.560Z,618
2022-12-11T20:03:11.692Z,660
2022-12-11T20:04:11.573Z,682
2022-12-11T20:05:11.683Z,533
2022-12-11T20:06:11.521Z,506
2022-12-11T20:07:11.482Z,656
2022-12-11T20:08:42.732Z,508
2022-12-11T20:09:11.527Z,646
2022-12-11T20:10:11.504Z,485
2022-12-11T20:11:15.963Z,600
2022-12-11T20:12:11.499Z,607
2022-12-11T20:13:11.699Z,475
2022-12-11T20:14:11.496Z,433
2022-12-11T20:15:11.788Z,413
2022-12-11T20:16:11.522Z,529
2022-12-11T20:17:13.723Z,540
2022-12-11T20:18:15.455Z,413
2022-12-11T20:19:11.561Z,418
2022-12-11T20:20:11.515Z,428
2022-12-11T20:21:11.513Z,400
2022-12-11T20:22:11.521Z,497
2022-12-11T20:23:11.700Z,400
2022-12-11T20:24:11.486Z,542
2022-12-11T20:25:11.657Z,423
2022-12-11T20:26:11.523Z,540
2022-12-11T20:27:11.492Z,536
2022-12-11T20:28:11.705Z,553
2022-12-11T20:29:11.537Z,473
2022-12-11T20:30:11.531Z,574
2022-12-11T20:31:14.943Z,460
2022-12-11T20:32:11.750Z,428
2022-12-11T20:33:11.700Z,424
2022-12-11T20:34:11.551Z,413
2022-12-11T20:35:11.785Z,413
2022-12-11T20:36:11.484Z,480
2022-12-11T20:37:11.499Z,413
2022-12-11T20:38:11.705Z,517
2022-12-11T20:39:11.495Z,500
2022-12-11T20:40:11.515Z,524
2022-12-11T20:41:11.520Z,539
2022-12-11T20:42:11.492Z,486
2022-12-11T20:43:11.704Z,421
2022-12-11T20:44:11.533Z,444
2022-12-11T20:45:11.610Z,459
2022-12-11T20:46:11.528Z,400
2022-12-11T20:47:11.509Z,434
2022-12-11T20:48:11.712Z,401
2022-12-11T20:49:11.540Z,418
2022-12-11T20:50:11.558Z,519
2022-12-11T20:51:11.535Z,536
2022-12-11T20:52:11.519Z,427
2022-12-11T20:53:11.681Z,555
2022-12-11T20:54:11.508Z,448
2022-12-11T20:55:11.685Z,614
2022-12-11T20:56:11.515Z,463
2022-12-11T20:57:11.538Z,580
2022-12-11T20:58:11.707Z,596
2022-12-11T20:59:11.502Z,465
2022-12-11T21:00:11.525Z,473
2022-12-11T21:01:11.541Z,591
2022-12-11T21:02:11.566Z,618
2022-12-11T21:03:11.682Z,459
2022-12-11T21:04:11.535Z,584
2022-12-11T21:05:11.706Z,456
2022-12-11T21:06:11.535Z,600
2022-12-11T21:07:11.513Z,553
2022-12-11T21:08:11.723Z,445
2022-12-11T21:09:11.507Z,569
2022-12-11T21:10:11.499Z,444
2022-12-11T21:11:11.514Z,448
2022-12-11T21:12:11.535Z,460
2022-12-11T21:13:11.712Z,543
2022-12-11T21:14:11.501Z,460
2022-12-11T21:15:11.656Z,589
2022-12-11T21:16:11.570Z,445
2022-12-11T21:17:11.504Z,533
2022-12-11T21:18:11.716Z,505
2022-12-11T21:19:16.486Z,527
2022-12-11T21:20:11.534Z,523
2022-12-11T21:21:11.544Z,433
2022-12-11T21:22:11.522Z,539
2022-12-11T21:23:11.709Z,433
2022-12-11T21:24:11.516Z,478
2022-12-11T21:25:11.677Z,500
2022-12-11T21:26:11.515Z,500
2022-12-11T21:27:11.540Z,424
2022-12-11T21:28:11.703Z,424
2022-12-11T21:29:11.517Z,500
2022-12-11T21:30:11.532Z,482
2022-12-11T21:31:11.513Z,424
2022-12-11T21:32:11.533Z,459
2022-12-11T21:33:11.701Z,482
2022-12-11T21:34:11.545Z,424
2022-12-11T21:35:11.634Z,424
2022-12-11T21:36:11.619Z,424
2022-12-11T21:37:11.549Z,424
2022-12-11T21:38:11.722Z,424
2022-12-11T21:39:11.546Z,400
2022-12-11T21:40:11.539Z,400
2022-12-11T21:41:11.528Z,400
2022-12-11T21:42:11.538Z,408
2022-12-11T21:43:11.710Z,400
2022-12-11T21:46:11.604Z,416
2022-12-11T21:47:11.522Z,416
2022-12-11T21:48:11.726Z,417
2022-12-11T21:49:11.516Z,444
2022-12-11T21:50:11.560Z,462
2022-12-11T21:51:11.543Z,422
2022-12-11T21:52:11.549Z,462
2022-12-11T21:53:11.730Z,446
2022-12-11T21:54:11.547Z,443
2022-12-11T21:55:11.670Z,443
2022-12-11T21:56:11.538Z,480
2022-12-11T21:57:11.544Z,443
2022-12-11T21:58:11.700Z,443
2022-12-11T21:59:11.526Z,450
2022-12-11T22:00:11.542Z,428
2022-12-11T22:01:11.713Z,428
2022-12-11T22:02:11.552Z,428
2022-12-11T22:03:11.727Z,473
2022-12-11T22:04:11.550Z,443
2022-12-11T22:05:11.677Z,443
2022-12-11T22:06:11.543Z,443
2022-12-11T22:07:11.593Z,456
2022-12-11T22:08:11.736Z,443
2022-12-11T22:09:11.517Z,436
2022-12-11T22:10:11.542Z,436
2022-12-11T22:11:11.528Z,436
2022-12-11T22:12:11.553Z,436
2022-12-11T22:13:11.734Z,436
2022-12-11T22:14:11.536Z,472
2022-12-11T22:15:11.717Z,472
2022-12-11T22:16:11.538Z,472
2022-12-11T22:17:11.548Z,472
2022-12-11T22:18:11.741Z,472
2022-12-11T22:19:11.524Z,515
2022-12-11T22:20:11.532Z,503
2022-12-11T22:21:11.550Z,456
2022-12-11T22:22:11.529Z,506
2022-12-11T22:23:11.737Z,493
2022-12-11T22:24:11.557Z,523
2022-12-11T22:25:11.816Z,462
2022-12-11T22:26:11.562Z,488
2022-12-11T22:27:11.575Z,536
2022-12-11T22:28:11.734Z,570
2022-12-11T22:29:11.559Z,486
2022-12-11T22:30:11.543Z,549
2022-12-11T22:31:11.585Z,524
2022-12-11T22:32:11.570Z,497
2022-12-11T22:33:11.737Z,486
2022-12-11T22:34:11.554Z,428
2022-12-11T22:35:11.697Z,428
2022-12-11T22:36:11.569Z,428
2022-12-11T22:37:11.561Z,428
2022-12-11T22:38:11.738Z,428
2022-12-11T22:39:11.539Z,416
2022-12-11T22:40:11.562Z,416
2022-12-11T22:41:11.567Z,420
2022-12-11T22:42:11.527Z,416
2022-12-11T22:43:11.709Z,442
2022-12-11T22:44:11.562Z,450
2022-12-11T22:45:11.759Z,450
2022-12-11T22:46:11.599Z,450
2022-12-11T22:47:11.540Z,450
2022-12-11T22:48:11.705Z,450
2022-12-11T22:49:11.551Z,428
2022-12-11T22:50:11.556Z,428
2022-12-11T22:51:11.548Z,428
2022-12-11T22:52:11.551Z,482
2022-12-11T22:53:11.735Z,428
2022-12-11T22:54:11.542Z,495
2022-12-11T22:55:11.697Z,546
2022-12-11T22:56:11.571Z,523
2022-12-11T22:57:11.560Z,556
2022-12-11T22:58:11.736Z,495
2022-12-11T22:59:11.533Z,515
2022-12-11T23:00:11.566Z,515
2022-12-11T23:01:11.577Z,515
2022-12-11T23:02:11.574Z,526
2022-12-11T23:03:11.828Z,515
2022-12-11T23:04:11.571Z,436
2022-12-11T23:05:11.818Z,436
2022-12-11T23:06:11.543Z,436
2022-12-11T23:07:11.538Z,436
2022-12-11T23:08:11.811Z,436
2022-12-11T23:09:11.570Z,443
2022-12-11T23:10:11.546Z,444
2022-12-11T23:11:11.555Z,443
2022-12-11T23:12:11.542Z,443
2022-12-11T23:13:11.747Z,443
2022-12-11T23:14:11.575Z,450
2022-12-11T23:15:11.671Z,450
2022-12-11T23:16:11.538Z,450
2022-12-11T23:17:11.571Z,450
2022-12-11T23:18:11.759Z,450
2022-12-11T23:19:11.564Z,450
2022-12-11T23:20:11.544Z,450
2022-12-11T23:21:11.548Z,450
2022-12-11T23:22:11.544Z,450
2022-12-11T23:23:11.754Z,450
2022-12-11T23:24:11.556Z,405
2022-12-11T23:25:11.880Z,405
2022-12-11T23:26:11.549Z,405
2022-12-11T23:27:11.542Z,405
2022-12-11T23:28:11.751Z,405
2022-12-11T23:29:11.568Z,410
2022-12-11T23:30:11.563Z,410
2022-12-11T23:31:11.626Z,410
2022-12-11T23:32:11.568Z,410
2022-12-11T23:33:11.747Z,410
2022-12-11T23:34:11.571Z,450
2022-12-11T23:35:11.908Z,450
2022-12-11T23:36:11.568Z,450
2022-12-11T23:37:11.554Z,450
2022-12-11T23:38:11.726Z,450
2022-12-11T23:39:11.568Z,410
2022-12-11T23:40:11.558Z,410
2022-12-11T23:41:11.577Z,410
2022-12-11T23:42:11.601Z,410
2022-12-11T23:43:11.732Z,410
2022-12-11T23:44:11.553Z,416
2022-12-11T23:45:11.854Z,416
2022-12-11T23:46:11.579Z,416
2022-12-11T23:47:11.557Z,416
2022-12-11T23:48:11.767Z,416
2022-12-11T23:49:11.595Z,436
2022-12-11T23:50:11.575Z,436
2022-12-11T23:51:11.582Z,436
2022-12-11T23:52:11.572Z,436
2022-12-11T23:53:11.751Z,436
2022-12-11T23:54:11.567Z,422
2022-12-11T23:55:11.727Z,422
2022-12-11T23:56:11.577Z,432
2022-12-11T23:57:11.562Z,422
2022-12-11T23:58:11.732Z,422
2022-12-11T23:59:11.608Z,405
